Time;durP1;ratioP1;P1;durP2;ratioP2;P2;SDS_P1;SDS_P2;PMS_P1;PMS_P2;Temp;Humidity;BMP_temperature;BMP_pressure;BME280_temperature;BME280_humidity;BME280_pressure;Samples;Min_cycle;Max_cycle;Signal;HPM_P1;HPM_P2
2021/12/12 00:00:29;;;;;;;8.50;5.03;;;;;;;18.66;50.88;100352.22;5055945;28;20016;-78
2021/12/12 00:03:03;;;;;;;8.15;5.15;;;;;;;18.64;50.90;100348.75;5055027;28;20043;-78
2021/12/12 00:05:43;;;;;;;10.32;5.97;;;;;;;18.67;50.83;100350.41;5055737;28;20055;-78
2021/12/12 00:08:12;;;;;;;8.18;5.05;;;;;;;18.65;51.02;100345.22;5055518;28;20021;-78
2021/12/12 00:10:40;;;;;;;10.45;5.80;;;;;;;18.66;50.92;100352.22;5055559;28;20371;-79
2021/12/12 00:13:13;;;;;;;9.18;5.60;;;;;;;18.67;50.99;100346.00;5053941;28;20052;-78
2021/12/12 00:15:39;;;;;;;9.35;6.00;;;;;;;18.70;50.72;100350.31;5055346;28;20098;-78
2021/12/12 00:18:05;;;;;;;10.55;5.57;;;;;;;18.68;50.73;100350.38;5055302;28;20405;-78
2021/12/12 00:20:32;;;;;;;11.60;6.30;;;;;;;18.72;50.61;100362.56;5055755;28;20504;-78
2021/12/12 00:23:01;;;;;;;10.00;5.82;;;;;;;18.69;50.92;100356.53;5054484;28;20025;-78
2021/12/12 00:25:31;;;;;;;8.88;5.60;;;;;;;18.75;50.29;100361.59;5054834;28;20048;-78
2021/12/12 00:27:58;;;;;;;9.45;5.55;;;;;;;18.74;50.42;100360.72;5055217;28;20059;-78
2021/12/12 00:30:25;;;;;;;9.02;5.50;;;;;;;18.69;50.41;100361.81;5055149;28;20024;-79
2021/12/12 00:32:52;;;;;;;10.48;6.30;;;;;;;18.70;50.02;100361.75;5070816;28;20408;-79
2021/12/12 00:35:18;;;;;;;10.02;6.80;;;;;;;18.72;50.42;100365.22;5054238;28;20045;-78
2021/12/12 00:37:47;;;;;;;9.55;5.88;;;;;;;18.68;50.31;100365.38;5054893;28;20032;-78
2021/12/12 00:40:39;;;;;;;10.85;6.00;;;;;;;18.67;50.27;100369.81;5054409;28;20612;-79
2021/12/12 00:43:13;;;;;;;11.10;5.93;;;;;;;18.66;50.34;100389.22;5054825;28;20041;-78
2021/12/12 00:45:40;;;;;;;8.02;5.80;;;;;;;18.70;50.17;100374.97;5054127;28;20025;-81
2021/12/12 00:48:07;;;;;;;10.50;5.78;;;;;;;18.66;50.08;100373.38;5054474;28;20029;-78
2021/12/12 00:50:36;;;;;;;8.85;5.53;;;;;;;18.60;50.44;100373.59;5054592;28;20108;-79
2021/12/12 00:53:04;;;;;;;8.52;5.43;;;;;;;18.64;50.30;100369.91;5055039;28;20031;-79
2021/12/12 00:55:31;;;;;;;10.57;6.30;;;;;;;18.61;50.05;100362.97;5055016;28;20021;-80
2021/12/12 00:57:56;;;;;;;8.52;5.75;;;;;;;18.61;50.16;100360.34;5054192;28;20108;-80
2021/12/12 01:00:30;;;;;;;10.13;6.43;;;;;;;18.61;50.15;100360.34;5053839;28;20056;-79
2021/12/12 01:02:57;;;;;;;10.60;5.93;;;;;;;18.63;50.41;100362.91;5070307;28;20032;-79
2021/12/12 01:05:25;;;;;;;8.60;5.45;;;;;;;18.62;50.39;100356.75;5054568;28;20413;-79
2021/12/12 01:07:52;;;;;;;9.65;6.05;;;;;;;18.58;50.34;100365.72;5053641;28;20021;-79
2021/12/12 01:10:24;;;;;;;8.98;5.68;;;;;;;18.58;50.47;100357.78;5054651;28;20108;-79
2021/12/12 01:12:52;;;;;;;8.88;5.43;;;;;;;18.59;50.33;100363.94;5054996;28;20029;-80
2021/12/12 01:15:24;;;;;;;8.23;4.97;;;;;;;18.52;50.31;100358.88;5054353;28;20025;-79
2021/12/12 01:17:55;;;;;;;7.85;5.03;;;;;;;18.57;50.27;100363.13;5054534;28;20021;-79
2021/12/12 01:20:41;;;;;;;9.80;6.18;;;;;;;18.56;50.15;100356.13;5053972;28;20534;-78
2021/12/12 01:23:13;;;;;;;10.20;6.13;;;;;;;18.55;50.32;100370.25;5054181;28;20025;-79
2021/12/12 01:25:44;;;;;;;9.75;5.85;;;;;;;18.58;50.12;100364.84;5053400;28;20056;-79
2021/12/12 01:28:13;;;;;;;10.38;5.70;;;;;;;18.56;50.26;100364.03;5054379;28;20052;-78
2021/12/12 01:30:40;;;;;;;8.48;5.57;;;;;;;18.57;50.47;100376.34;5053355;28;20102;-78
2021/12/12 01:33:09;;;;;;;10.95;6.10;;;;;;;18.58;50.00;100380.69;5053444;28;20454;-77
2021/12/12 01:35:39;;;;;;;8.63;5.47;;;;;;;18.54;50.19;100379.94;5053435;28;20174;-78
2021/12/12 01:40:56;;;;;;;9.98;5.88;;;;;;;18.57;50.13;100394.84;5053924;28;20044;-78
2021/12/12 01:43:25;;;;;;;9.32;5.85;;;;;;;18.56;50.14;100390.47;5054799;28;20021;-78
2021/12/12 01:45:58;;;;;;;9.27;5.78;;;;;;;18.55;49.82;100386.13;5053296;28;20031;-77
2021/12/12 01:48:43;;;;;;;8.40;5.93;;;;;;;18.52;50.10;100395.88;5054414;28;20021;-78
2021/12/12 01:51:10;;;;;;;8.57;5.65;;;;;;;18.53;49.93;100399.38;5054319;28;20025;-78
2021/12/12 01:53:40;;;;;;;10.15;5.95;;;;;;;18.52;50.18;100395.88;5053079;28;20021;-78
2021/12/12 01:56:21;;;;;;;10.07;5.80;;;;;;;18.56;49.79;100390.47;5054672;28;20470;-78
2021/12/12 01:58:53;;;;;;;8.85;5.78;;;;;;;18.49;50.02;100389.81;5054156;28;20025;-78
2021/12/12 02:01:24;;;;;;;7.95;5.75;;;;;;;18.45;50.13;100390.88;5053967;28;20052;-78
2021/12/12 02:03:58;;;;;;;9.98;6.22;;;;;;;18.53;49.67;100386.16;5054329;28;20021;-78
2021/12/12 02:06:24;;;;;;;9.18;5.95;;;;;;;18.48;49.96;100391.63;5053578;28;20093;-78
2021/12/12 02:08:55;;;;;;;7.68;5.10;;;;;;;18.49;49.98;100393.34;5055002;28;20025;-78
2021/12/12 02:11:25;;;;;;;8.77;5.60;;;;;;;18.51;49.84;100390.66;5058218;28;20017;-78
2021/12/12 02:13:54;;;;;;;7.93;5.43;;;;;;;18.50;49.84;100384.50;5058175;28;20024;-78
2021/12/12 02:16:22;;;;;;;8.02;5.57;;;;;;;18.45;49.68;100391.72;5058145;28;20529;-78
2021/12/12 02:18:51;;;;;;;9.80;5.53;;;;;;;18.48;49.95;100390.75;5057706;28;20021;-77
2021/12/12 02:21:25;;;;;;;9.13;5.75;;;;;;;18.47;49.86;100389.91;5057380;28;20036;-78
2021/12/12 02:35:21;;;;;;;10.07;6.50;;;;;;;18.41;50.01;100408.63;5057943;28;20047;-78
2021/12/12 02:37:48;;;;;;;10.52;7.07;;;;;;;18.45;49.74;100401.44;5057008;28;20455;-78
2021/12/12 02:40:22;;;;;;;9.93;7.25;;;;;;;18.45;49.58;100407.56;5056245;28;20032;-77
2021/12/12 02:42:48;;;;;;;9.68;7.18;;;;;;;18.44;49.85;100408.50;5057176;28;20028;-78
2021/12/12 02:45:16;;;;;;;11.63;7.07;;;;;;;18.42;49.79;100412.97;5057058;28;20102;-78
2021/12/12 02:47:45;;;;;;;9.90;6.65;;;;;;;18.42;49.46;100412.97;5056951;28;20521;-78
2021/12/12 02:50:18;;;;;;;11.88;7.18;;;;;;;18.39;49.84;100413.06;5055639;28;20052;-78
2021/12/12 02:52:48;;;;;;;9.63;6.78;;;;;;;18.42;49.44;100422.69;5057107;28;20056;-78
2021/12/12 02:55:36;;;;;;;12.13;7.22;;;;;;;18.38;49.42;100421.94;5056614;28;20102;-79
2021/12/12 02:58:05;;;;;;;9.65;7.45;;;;;;;18.39;49.78;100426.28;5055527;28;20029;-78
2021/12/12 03:00:36;;;;;;;10.23;6.60;;;;;;;18.40;49.49;100419.22;5055886;28;20024;-78
2021/12/12 03:03:03;;;;;;;10.02;6.65;;;;;;;18.39;49.47;100426.28;5057050;28;20116;-78
2021/12/12 03:05:33;;;;;;;10.43;7.00;;;;;;;18.42;49.63;100427.97;5055326;28;20025;-78
2021/12/12 03:08:00;;;;;;;10.68;6.50;;;;;;;18.38;49.30;100421.94;5056820;28;20170;-78
2021/12/12 03:10:33;;;;;;;10.77;6.50;;;;;;;18.36;49.64;100429.06;5056574;28;20025;-78
2021/12/12 03:12:59;;;;;;;10.68;6.93;;;;;;;18.37;49.63;100425.50;5056709;28;20403;-78
2021/12/12 03:15:30;;;;;;;9.45;7.03;;;;;;;18.37;49.77;100433.41;5056476;28;20053;-78
2021/12/12 03:18:01;;;;;;;11.18;6.93;;;;;;;18.36;49.60;100434.34;5056313;28;20044;-79
2021/12/12 03:20:32;;;;;;;9.23;6.63;;;;;;;18.32;49.56;100440.63;5054809;28;20021;-79
2021/12/12 03:23:20;;;;;;;10.57;6.80;;;;;;;18.31;49.27;100431.84;5054940;28;20072;-78
2021/12/12 03:25:52;;;;;;;9.82;7.13;;;;;;;18.32;49.52;100430.06;5054809;28;20048;-78
2021/12/12 03:28:21;;;;;;;12.00;7.47;;;;;;;18.30;49.49;100432.75;5056657;28;20447;-78
2021/12/12 03:30:51;;;;;;;10.25;6.95;;;;;;;18.27;49.61;100434.63;5055593;28;20458;-78
2021/12/12 03:33:16;;;;;;;12.77;7.55;;;;;;;18.28;49.71;100436.34;5056561;28;20029;-78
2021/12/12 03:35:48;;;;;;;11.68;7.72;;;;;;;18.29;49.56;100427.50;5056718;28;20043;-78
2021/12/12 03:38:14;;;;;;;10.93;7.18;;;;;;;18.29;49.87;100427.50;5054819;28;20032;-78
2021/12/12 03:40:40;;;;;;;11.45;6.85;;;;;;;18.24;49.86;100430.31;5055078;28;20385;-78
2021/12/12 03:43:07;;;;;;;10.43;6.50;;;;;;;18.24;49.57;100436.47;5056278;28;20056;-78
2021/12/12 03:45:34;;;;;;;12.07;7.10;;;;;;;18.25;49.59;100438.19;5055084;28;20032;-78
2021/12/12 03:48:12;;;;;;;9.90;7.18;;;;;;;18.28;49.51;100436.34;5056071;28;20060;-78
2021/12/12 03:50:40;;;;;;;11.30;6.57;;;;;;;18.24;49.66;100425.91;5055584;28;20094;-79
2021/12/12 03:53:06;;;;;;;10.40;6.93;;;;;;;18.27;49.35;100424.94;5055891;28;20025;-78
2021/12/12 03:55:33;;;;;;;10.48;6.65;;;;;;;18.28;49.42;100421.38;5055879;28;20025;-78
2021/12/12 03:57:59;;;;;;;9.52;6.55;;;;;;;18.27;49.57;100424.06;5054638;28;20028;-78
2021/12/12 04:00:31;;;;;;;8.35;6.63;;;;;;;18.26;49.37;100420.59;5055713;28;20474;-78
2021/12/12 04:02:57;;;;;;;10.77;6.78;;;;;;;18.21;49.35;100420.72;5056002;28;20025;-78
2021/12/12 04:05:24;;;;;;;8.63;6.03;;;;;;;18.27;49.43;100424.06;5053867;28;20033;-78
2021/12/12 04:07:50;;;;;;;9.88;6.20;;;;;;;18.23;49.56;100429.47;5054388;28;20471;-81
2021/12/12 04:10:19;;;;;;;9.68;6.60;;;;;;;18.22;49.26;100440.94;5053076;28;20033;-79
2021/12/12 04:12:46;;;;;;;10.13;6.20;;;;;;;18.20;49.54;100432.22;5054024;28;20075;-78
2021/12/12 04:15:12;;;;;;;9.70;6.38;;;;;;;18.22;49.66;100426.88;5055176;28;20103;-78
2021/12/12 04:17:38;;;;;;;8.75;6.07;;;;;;;18.17;49.79;100427.03;5054105;28;20048;-79
2021/12/12 04:20:16;;;;;;;8.07;5.80;;;;;;;18.20;49.82;100429.56;5053931;28;20352;-79
2021/12/12 04:22:42;;;;;;;10.10;6.35;;;;;;;18.21;49.78;100428.66;5055218;28;20020;-80
2021/12/12 04:25:08;;;;;;;9.77;6.63;;;;;;;18.20;49.96;100429.56;5054929;28;20129;-82
2021/12/12 04:27:35;;;;;;;10.52;6.40;;;;;;;18.20;49.77;100429.56;5053981;28;20190;-79
2021/12/12 04:30:04;;;;;;;10.70;5.90;;;;;;;18.18;50.19;100436.69;5054022;28;20059;-79
2021/12/12 04:32:31;;;;;;;8.07;5.82;;;;;;;18.17;49.92;100434.09;5069264;28;20119;-79
2021/12/12 04:35:07;;;;;;;9.70;6.45;;;;;;;18.15;49.85;100431.50;5054319;28;20025;-79
2021/12/12 04:37:33;;;;;;;8.07;5.72;;;;;;;18.16;50.08;100433.22;5054832;28;20478;-78
2021/12/12 04:39:59;;;;;;;9.00;5.72;;;;;;;18.15;49.67;100428.84;5053619;28;20044;-78
2021/12/12 04:42:28;;;;;;;10.98;6.50;;;;;;;18.18;49.82;100431.41;5054589;28;20029;-78
2021/12/12 04:45:17;;;;;;;9.48;6.30;;;;;;;18.17;49.70;100429.69;5053328;28;20116;-79
2021/12/12 04:51:08;;;;;;;10.18;6.32;;;;;;;18.19;49.74;100430.50;5054958;28;20047;-78
2021/12/12 04:53:46;;;;;;;10.70;6.40;;;;;;;18.18;49.51;100428.75;5055374;28;20483;-78
2021/12/12 04:56:25;;;;;;;8.18;5.82;;;;;;;18.15;49.82;100431.50;5053475;28;20031;-79
2021/12/12 04:58:58;;;;;;;11.63;6.82;;;;;;;18.11;49.96;100427.22;5070180;28;20028;-78
2021/12/12 05:01:42;;;;;;;9.52;5.88;;;;;;;18.13;50.13;100435.97;5054496;28;20029;-79
2021/12/12 05:04:16;;;;;;;9.23;6.10;;;;;;;18.10;49.82;100426.38;5070050;28;20033;-79
2021/12/12 05:06:51;;;;;;;8.82;5.90;;;;;;;18.13;49.91;100432.47;5054615;28;20036;-79
2021/12/12 05:09:29;;;;;;;9.73;5.80;;;;;;;18.11;49.97;100435.16;5054433;28;20083;-79
2021/12/12 05:12:13;;;;;;;9.10;5.65;;;;;;;18.14;49.78;100442.97;5053118;28;20033;-79
2021/12/12 05:14:45;;;;;;;8.88;5.80;;;;;;;18.12;49.95;100442.19;5069202;28;20045;-79
2021/12/12 05:17:34;;;;;;;7.57;5.60;;;;;;;18.10;50.00;100434.31;5052325;28;20036;-78
2021/12/12 05:20:04;;;;;;;9.55;5.93;;;;;;;18.13;49.65;100449.19;5052010;28;20121;-79
2021/12/12 05:22:38;;;;;;;9.20;6.00;;;;;;;18.11;49.96;100445.72;5052537;28;20137;-78
2021/12/12 05:25:13;;;;;;;10.85;5.82;;;;;;;18.11;49.68;100456.28;5052194;28;20079;-79
2021/12/12 05:27:41;;;;;;;10.27;6.28;;;;;;;18.10;49.58;100454.56;5051397;28;20040;-79
2021/12/12 05:30:19;;;;;;;8.30;5.50;;;;;;;18.10;49.72;100451.91;5051344;28;20127;-79
2021/12/12 05:32:47;;;;;;;8.18;5.68;;;;;;;18.15;49.74;100451.78;5052508;28;20028;-79
2021/12/12 05:35:16;;;;;;;7.78;5.53;;;;;;;18.10;49.46;100459.84;5053839;28;20039;-79
2021/12/12 05:37:46;;;;;;;9.13;5.78;;;;;;;18.08;49.90;100453.75;5054349;28;20032;-79
2021/12/12 05:40:11;;;;;;;11.02;6.22;;;;;;;18.01;49.93;100454.84;5054110;28;20029;-79
2021/12/12 05:42:37;;;;;;;11.73;5.88;;;;;;;18.09;49.61;100458.13;5053277;28;20040;-78
2021/12/12 05:45:05;;;;;;;9.13;5.95;;;;;;;18.07;49.49;100463.44;5053726;28;20067;-79
2021/12/12 05:47:31;;;;;;;9.45;6.20;;;;;;;18.05;49.55;100472.28;5052713;28;20036;-79
2021/12/12 05:49:58;;;;;;;8.48;5.75;;;;;;;18.14;49.29;100481.72;5052821;28;20033;-79
2021/12/12 05:52:24;;;;;;;10.27;6.00;;;;;;;18.13;49.38;100475.59;5053100;28;20095;-79
2021/12/12 05:54:51;;;;;;;8.40;6.15;;;;;;;18.07;49.49;100475.81;5054145;28;20033;-79
2021/12/12 05:57:23;;;;;;;9.15;6.35;;;;;;;18.07;49.54;100481.09;5054095;28;20100;-80
2021/12/12 05:59:50;;;;;;;9.88;6.13;;;;;;;18.09;49.34;100481.88;5054102;28;20032;-79
2021/12/12 06:02:16;;;;;;;7.63;5.40;;;;;;;18.05;49.34;100477.56;5053855;28;20234;-79
2021/12/12 06:04:42;;;;;;;10.85;6.30;;;;;;;18.07;49.57;100486.38;5054635;28;20140;-79
2021/12/12 06:07:17;;;;;;;9.88;6.30;;;;;;;18.08;49.20;100477.53;5069774;28;20104;-79
2021/12/12 06:09:46;;;;;;;11.10;6.40;;;;;;;18.06;49.14;100479.38;5054152;28;20512;-79
2021/12/12 06:12:14;;;;;;;10.68;6.28;;;;;;;18.05;49.49;100485.50;5053881;28;20079;-80
2021/12/12 06:14:40;;;;;;;9.60;5.90;;;;;;;18.06;49.15;100480.22;5053726;28;20120;-79
2021/12/12 06:17:12;;;;;;;7.97;6.07;;;;;;;18.01;49.18;100482.09;5053616;28;20094;-79
2021/12/12 06:19:39;;;;;;;9.27;6.57;;;;;;;18.04;49.32;100483.78;5052504;28;20056;-80
2021/12/12 06:22:07;;;;;;;10.63;6.45;;;;;;;18.07;49.00;100489.00;5054027;28;20025;-79
2021/12/12 06:24:34;;;;;;;8.50;5.93;;;;;;;18.01;49.05;100481.25;5053114;28;20041;-79
2021/12/12 06:27:12;;;;;;;8.35;5.95;;;;;;;18.04;49.02;100481.13;5052669;28;20028;-80
2021/12/12 06:29:38;;;;;;;9.60;5.93;;;;;;;18.04;49.31;100475.84;5053629;28;20021;-79
2021/12/12 06:32:04;;;;;;;9.80;6.15;;;;;;;18.00;49.11;100479.53;5052647;28;20052;-78
2021/12/12 06:34:30;;;;;;;9.77;6.68;;;;;;;17.96;49.30;100482.25;5053768;28;20028;-79
2021/12/12 06:36:57;;;;;;;9.85;6.70;;;;;;;17.93;49.01;100489.41;5052745;28;20028;-79
2021/12/12 06:39:24;;;;;;;9.43;6.70;;;;;;;17.97;49.16;100491.91;5052505;28;20043;-79
2021/12/12 06:41:51;;;;;;;8.88;6.50;;;;;;;18.02;48.98;100490.91;5053400;28;20032;-79
2021/12/12 06:44:17;;;;;;;10.07;6.43;;;;;;;17.96;49.34;100495.47;5053463;28;20033;-79
2021/12/12 06:46:44;;;;;;;9.85;6.60;;;;;;;18.01;48.93;100487.38;5053595;28;20372;-79
2021/12/12 06:49:13;;;;;;;8.98;5.97;;;;;;;17.93;48.80;100490.25;5069111;28;20422;-81
2021/12/12 06:51:43;;;;;;;9.70;6.38;;;;;;;17.93;48.94;100489.41;5053533;28;20029;-79
2021/12/12 06:54:09;;;;;;;9.45;6.65;;;;;;;17.95;48.82;100488.44;5053519;28;20032;-80
2021/12/12 06:56:36;;;;;;;10.20;6.40;;;;;;;17.95;48.96;100499.00;5055244;28;20064;-79
2021/12/12 06:59:04;;;;;;;9.57;6.93;;;;;;;17.92;49.05;100496.47;5056968;28;20028;-79
2021/12/12 07:01:32;;;;;;;10.07;6.70;;;;;;;17.91;48.90;100492.09;5056876;28;20021;-79
2021/12/12 07:03:59;;;;;;;10.85;6.97;;;;;;;17.88;49.10;100502.78;5055673;28;20120;-79
2021/12/12 07:06:28;;;;;;;9.20;6.07;;;;;;;17.87;48.84;100503.66;5072504;28;20036;-79
2021/12/12 07:08:57;;;;;;;10.25;6.38;;;;;;;17.86;48.99;100504.56;5056668;28;20024;-79
2021/12/12 07:11:25;;;;;;;9.45;6.25;;;;;;;17.86;48.73;100512.50;5072326;28;20033;-79
2021/12/12 07:13:51;;;;;;;10.82;6.93;;;;;;;17.83;48.68;100517.88;5056002;28;20028;-79
2021/12/12 07:16:20;;;;;;;7.85;5.95;;;;;;;17.79;48.79;100513.59;5056541;28;20052;-79
2021/12/12 07:18:46;;;;;;;9.18;6.45;;;;;;;17.77;48.87;100520.72;5056909;28;20459;-79
2021/12/12 07:21:13;;;;;;;10.60;7.07;;;;;;;17.84;48.63;100519.63;5055370;28;20374;-79
2021/12/12 07:23:41;;;;;;;10.90;6.93;;;;;;;17.79;48.93;100516.25;5055363;28;20090;-79
2021/12/12 07:26:10;;;;;;;10.90;7.15;;;;;;;17.78;49.00;100527.72;5056054;28;20128;-79
2021/12/12 07:28:36;;;;;;;11.13;6.70;;;;;;;17.78;49.11;100518.00;5056241;28;20139;-79
2021/12/12 07:31:09;;;;;;;9.90;6.55;;;;;;;17.81;49.04;100519.69;5055473;28;20036;-79
2021/12/12 07:33:35;;;;;;;9.75;6.90;;;;;;;17.73;49.18;100524.34;5056226;28;20025;-79
2021/12/12 07:36:05;;;;;;;8.45;6.03;;;;;;;17.73;48.84;100524.34;5055480;28;20117;-79
2021/12/12 07:38:32;;;;;;;9.13;6.47;;;;;;;17.75;48.99;100517.25;5056177;28;20035;-79
2021/12/12 07:40:59;;;;;;;11.05;6.15;;;;;;;17.75;49.10;100518.13;5056165;28;20056;-79
2021/12/12 07:43:27;;;;;;;8.63;5.90;;;;;;;17.77;48.91;100528.63;5056068;28;20089;-79
2021/12/12 07:45:53;;;;;;;9.82;6.07;;;;;;;17.75;48.88;100526.03;5055300;28;20036;-78
2021/12/12 07:48:20;;;;;;;8.70;5.78;;;;;;;17.73;48.98;100513.78;5055105;28;20517;-79
2021/12/12 07:50:48;;;;;;;9.65;5.88;;;;;;;17.70;49.21;100526.19;5055126;28;20111;-79
2021/12/12 07:53:16;;;;;;;9.68;5.97;;;;;;;17.69;48.86;100534.16;5056088;28;20477;-79
2021/12/12 07:55:42;;;;;;;9.15;6.13;;;;;;;17.74;48.88;100539.28;5054993;28;20056;-79
2021/12/12 07:58:11;;;;;;;11.23;7.03;;;;;;;17.70;48.91;100533.22;5055791;28;20112;-79
2021/12/12 08:00:38;;;;;;;8.73;6.00;;;;;;;17.76;48.73;100540.09;5054617;28;20463;-79
2021/12/12 08:03:04;;;;;;;9.88;6.18;;;;;;;17.73;48.76;100542.84;5055911;28;20451;-79
2021/12/12 08:05:32;;;;;;;9.38;5.80;;;;;;;17.66;49.13;100544.78;5054681;28;20029;-79
2021/12/12 08:08:01;;;;;;;10.95;6.32;;;;;;;17.68;48.97;100549.09;5055059;28;20029;-78
2021/12/12 08:10:28;;;;;;;9.80;6.60;;;;;;;17.67;48.91;100544.75;5055189;28;20035;-79
2021/12/12 08:12:54;;;;;;;9.10;5.60;;;;;;;17.69;48.74;100545.53;5055094;28;20036;-79
2021/12/12 08:15:21;;;;;;;8.85;6.45;;;;;;;17.71;49.11;100554.31;5055087;28;20029;-79
2021/12/12 08:17:47;;;;;;;8.90;5.75;;;;;;;17.65;48.96;100551.84;5055448;28;20632;-79
2021/12/12 08:20:15;;;;;;;8.77;5.50;;;;;;;17.64;48.88;100544.84;5055353;28;20474;-79
2021/12/12 08:22:43;;;;;;;9.50;5.93;;;;;;;17.67;48.82;100552.66;5054429;28;20039;-79
2021/12/12 08:25:12;;;;;;;10.27;5.82;;;;;;;17.69;49.03;100556.09;5055171;28;20098;-78
2021/12/12 08:27:39;;;;;;;7.75;5.55;;;;;;;17.72;48.75;100552.50;5055374;28;20107;-78
2021/12/12 08:30:09;;;;;;;10.50;6.75;;;;;;;17.68;48.98;100554.38;5055367;28;20065;-78
2021/12/12 08:32:35;;;;;;;7.68;5.20;;;;;;;17.65;49.14;100557.13;5054747;28;20366;-79
2021/12/12 08:35:02;;;;;;;9.30;5.30;;;;;;;17.65;49.16;100562.41;5054137;28;20029;-78
2021/12/12 08:37:30;;;;;;;9.05;5.75;;;;;;;17.58;49.07;100560.88;5055193;28;20044;-78
2021/12/12 08:39:56;;;;;;;10.10;5.97;;;;;;;17.60;49.30;100568.72;5055089;28;20033;-79
2021/12/12 08:42:26;;;;;;;8.18;5.35;;;;;;;17.65;49.20;100565.03;5054169;28;20040;-78
2021/12/12 08:44:53;;;;;;;9.68;6.00;;;;;;;17.64;49.03;100567.72;5054646;28;20035;-79
2021/12/12 08:47:19;;;;;;;9.13;5.53;;;;;;;17.64;48.96;100568.59;5053870;28;20479;-78
2021/12/12 08:49:46;;;;;;;9.23;6.18;;;;;;;17.65;49.36;100569.44;5054377;28;20039;-78
2021/12/12 08:52:30;;;;;;;10.15;5.60;;;;;;;17.66;49.11;100569.41;5053861;28;20382;-79
2021/12/12 08:54:57;;;;;;;6.53;5.00;;;;;;;17.69;49.15;100577.22;5054805;28;20039;-78
2021/12/12 08:57:46;;;;;;;8.80;5.20;;;;;;;17.66;49.18;100582.59;5055019;28;20443;-79
2021/12/12 09:00:16;;;;;;;8.73;5.57;;;;;;;17.65;49.27;100583.53;5054474;28;20024;-78
2021/12/12 09:02:43;;;;;;;10.95;6.03;;;;;;;17.64;49.18;100588.84;5054432;28;20432;-78
2021/12/12 09:05:16;;;;;;;9.23;6.22;;;;;;;17.69;49.23;100592.22;5054733;28;20029;-80
2021/12/12 09:07:45;;;;;;;8.45;5.38;;;;;;;17.68;49.37;100596.63;5054525;28;20108;-80
2021/12/12 09:10:21;;;;;;;8.05;5.80;;;;;;;17.67;49.22;100597.53;5053705;28;20048;-78
2021/12/12 09:12:59;;;;;;;7.78;5.28;;;;;;;17.67;49.18;100597.53;5054551;28;20071;-80
2021/12/12 09:15:32;;;;;;;9.70;5.75;;;;;;;17.70;49.36;100597.47;5053431;28;20040;-78
2021/12/12 09:18:07;;;;;;;8.70;5.53;;;;;;;17.72;49.33;100605.31;5052735;28;20116;-79
2021/12/12 09:20:48;;;;;;;8.13;5.38;;;;;;;17.75;49.50;100601.72;5053368;28;20047;-78
2021/12/12 09:23:18;;;;;;;8.48;5.10;;;;;;;17.69;49.46;100603.63;5054536;28;20086;-78
2021/12/12 09:25:53;;;;;;;8.18;5.25;;;;;;;17.66;49.47;100608.13;5053981;28;20093;-78
2021/12/12 09:28:24;;;;;;;10.37;5.20;;;;;;;17.65;49.31;100612.56;5053976;28;20463;-78
2021/12/12 09:30:51;;;;;;;9.27;5.25;;;;;;;17.65;49.63;100612.56;5054396;28;20288;-78
2021/12/12 09:33:19;;;;;;;7.35;4.95;;;;;;;17.67;49.66;100615.16;5054504;28;20046;-78
2021/12/12 09:36:07;;;;;;;8.18;5.22;;;;;;;17.64;49.44;100617.88;5052474;28;20033;-79
2021/12/12 09:38:40;;;;;;;9.10;5.88;;;;;;;17.65;49.64;100617.84;5033184;28;20120;-78
2021/12/12 09:41:23;;;;;;;8.95;5.13;;;;;;;17.64;49.61;100621.41;5049981;28;20458;-78
2021/12/12 09:44:18;;;;;;;9.27;5.47;;;;;;;17.69;49.62;100624.75;5032842;28;20037;-79
2021/12/12 09:47:27;;;;;;;8.38;4.93;;;;;;;17.67;49.59;100621.28;5034308;28;20047;-78
2021/12/12 09:53:22;;;;;;;7.85;4.60;;;;;;;17.70;49.47;100615.94;5034247;28;20103;-78
2021/12/12 09:56:22;;;;;;;8.43;4.80;;;;;;;17.73;49.39;100619.38;5033137;28;20025;-78
2021/12/12 09:59:03;;;;;;;8.38;4.78;;;;;;;17.70;49.75;100615.94;5034120;28;20034;-78
2021/12/12 10:01:38;;;;;;;8.30;4.93;;;;;;;17.65;49.54;100612.56;5034495;28;20447;-78
2021/12/12 10:04:25;;;;;;;8.00;5.00;;;;;;;17.71;49.63;100620.31;5049644;28;20084;-78
2021/12/12 10:07:09;;;;;;;8.73;5.00;;;;;;;17.71;49.61;100617.66;5034693;28;20100;-78
2021/12/12 10:09:52;;;;;;;9.13;5.47;;;;;;;17.75;49.33;100615.78;5034164;28;20104;-79
2021/12/12 10:12:25;;;;;;;8.82;5.10;;;;;;;17.74;49.64;100615.84;5034361;28;20352;-78
2021/12/12 10:15:04;;;;;;;9.75;5.47;;;;;;;17.70;49.46;100605.38;5033966;28;20064;-79
2021/12/12 10:17:44;;;;;;;7.85;4.95;;;;;;;17.73;49.54;100614.09;5033903;28;20052;-78
2021/12/12 10:20:13;;;;;;;9.27;4.85;;;;;;;17.74;49.69;100622.00;5034025;28;20475;-78
2021/12/12 10:23:09;;;;;;;9.35;5.22;;;;;;;17.74;49.47;100616.72;5033958;28;20029;-79
2021/12/12 10:26:00;;;;;;;7.35;4.40;;;;;;;17.79;49.82;100613.94;5032561;28;20103;-78
2021/12/12 10:28:33;;;;;;;9.90;5.65;;;;;;;17.78;49.48;100606.94;5040512;28;20486;-78
2021/12/12 10:31:11;;;;;;;9.38;4.97;;;;;;;17.74;49.66;100607.91;5055083;28;20098;-78
2021/12/12 10:33:49;;;;;;;8.75;5.05;;;;;;;17.74;49.48;100602.63;5057539;28;20096;-78
2021/12/12 10:36:21;;;;;;;8.98;4.90;;;;;;;17.79;49.87;100603.38;5057085;28;20028;-78
2021/12/12 10:39:04;;;;;;;8.05;5.28;;;;;;;17.77;49.63;100599.91;5073017;28;20079;-78
2021/12/12 10:41:38;;;;;;;8.45;4.93;;;;;;;17.78;49.56;100599.00;5057249;28;20024;-78
2021/12/12 10:44:22;;;;;;;8.48;5.10;;;;;;;17.82;49.66;100592.72;5057514;28;20351;-78
2021/12/12 10:46:57;;;;;;;7.78;4.93;;;;;;;17.78;49.70;100585.81;5057486;28;20049;-79
2021/12/12 10:50:00;;;;;;;8.18;4.53;;;;;;;17.80;49.80;100586.59;5057259;28;20479;-78
2021/12/12 10:52:38;;;;;;;7.32;4.22;;;;;;;17.82;49.79;100587.44;5057148;28;20029;-78
2021/12/12 10:55:20;;;;;;;9.18;4.60;;;;;;;17.81;49.61;100575.13;5056690;28;20039;-78
2021/12/12 10:58:19;;;;;;;9.25;4.45;;;;;;;17.82;49.64;100568.97;5057204;28;20029;-78
2021/12/12 11:00:49;;;;;;;7.07;4.18;;;;;;;17.81;49.61;100565.44;5056072;28;20120;-79
2021/12/12 11:03:21;;;;;;;9.32;4.28;;;;;;;17.78;49.82;100556.75;5056866;28;20036;-78
2021/12/12 11:06:08;;;;;;;11.40;5.13;;;;;;;17.78;49.59;100554.13;5056665;28;20106;-78
2021/12/12 11:09:04;;;;;;;8.85;5.05;;;;;;;17.78;49.96;100554.97;5056892;28;20098;-78
2021/12/12 11:11:37;;;;;;;6.88;4.18;;;;;;;17.82;49.78;100555.78;5055077;28;20041;-78
2021/12/12 11:14:17;;;;;;;8.50;4.32;;;;;;;17.81;49.72;100548.72;5056703;28;20086;-78
2021/12/12 11:17:14;;;;;;;6.97;3.83;;;;;;;17.79;49.82;100550.56;5055300;28;20474;-78
2021/12/12 11:19:46;;;;;;;8.07;4.57;;;;;;;17.82;49.65;100545.22;5050631;28;20048;-79
2021/12/12 11:22:25;;;;;;;8.13;4.28;;;;;;;17.82;49.75;100545.22;5056395;28;20367;-78
2021/12/12 11:25:09;;;;;;;7.55;3.95;;;;;;;17.84;49.93;100532.81;5055260;28;20119;-78
2021/12/12 11:27:54;;;;;;;9.38;4.72;;;;;;;17.86;49.68;100538.91;5056527;28;20420;-79
2021/12/12 11:30:47;;;;;;;7.72;3.90;;;;;;;17.86;50.03;100530.97;5055238;28;20036;-79
2021/12/12 11:33:16;;;;;;;8.15;3.58;;;;;;;17.84;49.72;100519.63;5047600;28;20051;-78
2021/12/12 11:35:46;;;;;;;8.55;3.25;;;;;;;17.88;49.83;100518.63;5056145;28;20028;-78
2021/12/12 11:38:22;;;;;;;8.32;4.30;;;;;;;17.85;49.68;100516.06;5054476;28;20017;-78
2021/12/12 11:41:07;;;;;;;9.25;3.50;;;;;;;17.85;49.96;100510.78;5055053;28;20028;-79
2021/12/12 11:43:59;;;;;;;8.07;3.53;;;;;;;17.84;49.71;100501.13;5055595;28;20033;-78
2021/12/12 11:46:56;;;;;;;7.47;4.13;;;;;;;17.88;49.87;100493.97;5056716;28;20448;-78
2021/12/12 11:49:27;;;;;;;8.18;3.40;;;;;;;17.91;49.76;100492.09;5055822;28;20036;-79
2021/12/12 11:52:02;;;;;;;8.63;3.45;;;;;;;17.87;49.95;100490.44;5056580;28;20033;-78
2021/12/12 11:54:47;;;;;;;7.80;3.40;;;;;;;17.88;49.80;100481.66;5054436;28;20045;-78
2021/12/12 11:57:33;;;;;;;6.30;3.08;;;;;;;17.91;49.91;100489.44;5056173;28;20094;-78
2021/12/12 12:00:19;;;;;;;7.80;3.45;;;;;;;17.88;49.79;100484.28;5055578;28;20100;-78
2021/12/12 12:03:09;;;;;;;6.95;3.22;;;;;;;17.85;50.03;100487.00;5055830;28;20029;-79
2021/12/12 12:05:42;;;;;;;6.85;3.28;;;;;;;17.81;49.95;100477.44;5055667;28;20028;-78